Time;durP1;ratioP1;P1;durP2;ratioP2;P2;SDS_P1;SDS_P2;PMS_P1;PMS_P2;Temp;Humidity;BMP_temperature;BMP_pressure;BME280_temperature;BME280_humidity;BME280_pressure;Samples;Min_cycle;Max_cycle;Signal;HPM_P1;HPM_P2
2021/12/08 00:01:36;;;;;;;;;0.67;0.00;;;;;8.76;66.90;99292.69;4994589;28;45383;-74
2021/12/08 00:04:01;;;;;;;;;0.00;0.00;;;;;8.89;67.00;99313.69;4996505;28;46497;-74
2021/12/08 00:06:26;;;;;;;;;0.33;0.00;;;;;8.91;66.79;99321.56;4996035;28;45364;-74
2021/12/08 00:14:20;;;;;;;;;1.67;0.00;;;;;8.87;66.98;99306.66;4996144;28;45429;-73
2021/12/08 00:16:45;;;;;;;;;1.33;0.00;;;;;8.71;67.39;99271.66;4995660;28;45534;-74
2021/12/08 00:19:10;;;;;;;;;1.00;0.00;;;;;8.88;66.80;99297.88;4996144;28;45453;-74
2021/12/08 00:21:36;;;;;;;;;0.00;0.00;;;;;8.85;66.98;99309.31;4996014;28;45433;-74
2021/12/08 00:24:01;;;;;;;;;2.00;1.00;;;;;8.85;67.05;99296.16;4995360;28;64244;-74
2021/12/08 00:26:27;;;;;;;;;4.33;0.33;;;;;8.89;66.68;99313.69;4995769;28;50655;-74
2021/12/08 00:28:52;;;;;;;;;0.67;0.67;;;;;8.88;66.84;99306.63;4990520;28;45460;-73
2021/12/08 00:31:17;;;;;;;;;2.00;0.00;;;;;8.88;66.83;99295.25;4988310;28;45444;-73
2021/12/08 00:33:43;;;;;;;;;1.33;0.00;;;;;8.88;66.94;99300.50;4994746;28;47244;-74
2021/12/08 00:36:14;;;;;;;;;0.67;0.00;;;;;8.85;66.74;99300.53;4985987;28;45452;-73
2021/12/08 00:38:39;;;;;;;;;1.67;0.67;;;;;8.83;66.76;99305.78;4984723;28;45203;-73
2021/12/08 00:41:05;;;;;;;;;1.00;0.00;;;;;8.85;66.92;99303.19;4986365;28;45376;-74
2021/12/08 00:43:30;;;;;;;;;2.33;0.00;;;;;8.75;66.70;99296.22;4986352;28;45905;-73
2021/12/08 00:45:55;;;;;;;;;2.00;1.00;;;;;8.83;66.93;99323.34;4987224;28;45386;-73
2021/12/08 00:48:21;;;;;;;;;2.33;0.00;;;;;8.82;66.82;99345.28;4987306;28;45445;-74
2021/12/08 00:50:46;;;;;;;;;0.00;0.00;;;;;8.80;66.89;99337.41;4990159;28;45493;-74
2021/12/08 00:53:12;;;;;;;;;1.00;0.00;;;;;8.80;66.78;99339.16;4995718;28;46191;-74
2021/12/08 00:55:37;;;;;;;;;1.67;0.00;;;;;8.69;66.88;99328.72;4995718;28;45286;-73
2021/12/08 00:58:03;;;;;;;;;0.00;0.00;;;;;8.69;66.72;99317.31;4995288;28;45511;-74
2021/12/08 01:00:33;;;;;;;;;1.00;1.00;;;;;8.96;66.84;99351.34;4996354;28;45496;-74
2021/12/08 01:02:59;;;;;;;;;1.33;0.00;;;;;8.86;66.58;99325.97;4994780;28;46040;-74
2021/12/08 01:05:33;;;;;;;;;0.67;0.00;;;;;9.03;66.39;99344.28;4998904;28;45306;-74
2021/12/08 01:07:58;;;;;;;;;0.00;0.00;;;;;8.97;65.95;99346.97;4999254;28;45267;-73
2021/12/08 01:10:25;;;;;;;;;2.33;0.00;;;;;8.89;66.02;99344.34;4998072;28;51042;-73
2021/12/08 01:12:51;;;;;;;;;0.00;0.00;;;;;8.84;65.97;99333.88;4998137;28;46806;-73
2021/12/08 01:15:16;;;;;;;;;1.00;0.00;;;;;8.62;66.19;99316.44;4998656;28;45496;-73
2021/12/08 01:17:42;;;;;;;;;1.33;0.00;;;;;8.75;66.14;99333.94;4998883;28;45518;-73
2021/12/08 01:20:09;;;;;;;;;1.33;0.00;;;;;8.57;65.95;99320.84;4997605;28;56125;-73
2021/12/08 01:22:34;;;;;;;;;0.00;0.00;;;;;8.55;66.01;99317.38;4998634;28;47413;-73
2021/12/08 01:25:00;;;;;;;;;1.00;0.00;;;;;8.66;65.58;99331.34;4998543;28;52157;-73
2021/12/08 01:27:25;;;;;;;;;0.00;0.00;;;;;8.61;65.81;99322.59;4999462;28;45755;-73
2021/12/08 01:29:50;;;;;;;;;3.00;0.00;;;;;8.45;65.95;99278.84;4998134;28;45449;-73
2021/12/08 01:32:16;;;;;;;;;2.33;0.00;;;;;8.40;65.84;99265.72;4997670;28;46441;-73
2021/12/08 01:34:41;;;;;;;;;1.00;0.00;;;;;8.55;66.02;99297.19;4996966;28;55038;-73
2021/12/08 01:37:07;;;;;;;;;2.00;0.00;;;;;8.51;65.96;99284.94;4997198;28;56772;-73
2021/12/08 01:39:32;;;;;;;;;0.00;0.00;;;;;8.49;66.03;99299.88;4998490;28;45527;-73
2021/12/08 01:41:57;;;;;;;;;0.00;0.00;;;;;8.48;66.08;99303.38;4997064;28;61971;-73
2021/12/08 01:47:06;;;;;;;;;1.00;0.00;;;;;8.46;65.64;99323.53;4998565;28;45493;-74
2021/12/08 01:49:32;;;;;;;;;0.00;0.00;;;;;8.18;65.93;99290.34;5001692;28;56714;-74
2021/12/08 01:51:57;;;;;;;;;2.00;0.00;;;;;8.27;65.95;99327.13;4998343;28;45681;-73
2021/12/08 01:54:23;;;;;;;;;4.33;0.00;;;;;8.39;66.10;99358.66;4997668;28;46567;-73
2021/12/08 01:56:48;;;;;;;;;0.00;0.00;;;;;8.41;65.77;99362.13;4988330;28;45274;-73
2021/12/08 01:59:14;;;;;;;;;0.00;0.00;;;;;8.35;65.97;99346.34;4997646;28;45615;-73
2021/12/08 02:01:41;;;;;;;;;2.67;0.00;;;;;8.37;65.87;99361.31;4998339;28;46448;-73
2021/12/08 02:04:06;;;;;;;;;3.67;0.00;;;;;8.19;66.13;99336.78;4997945;28;45277;-73
2021/12/08 02:06:36;;;;;;;;;0.00;0.00;;;;;8.38;65.70;99362.16;4998025;28;45365;-73
2021/12/08 02:09:05;;;;;;;;;1.00;0.00;;;;;8.37;65.85;99361.31;4998284;28;45545;-74
2021/12/08 02:11:30;;;;;;;;;0.00;0.00;;;;;8.40;65.78;99373.53;4997548;28;46210;-73
2021/12/08 02:14:00;;;;;;;;;1.33;0.00;;;;;8.25;65.85;99345.50;4996364;28;45346;-73
2021/12/08 02:16:26;;;;;;;;;0.00;0.00;;;;;8.38;65.08;99385.84;4997541;28;45390;-73
2021/12/08 02:18:52;;;;;;;;;1.67;0.00;;;;;8.40;65.66;99390.19;4997525;28;45329;-73
2021/12/08 02:21:29;;;;;;;;;0.67;0.00;;;;;8.38;65.81;99394.59;4997884;28;45711;-73
2021/12/08 02:23:56;;;;;;;;;3.00;0.00;;;;;8.26;65.85;99368.31;4988012;28;45480;-73
2021/12/08 02:26:22;;;;;;;;;0.00;0.00;;;;;8.24;65.95;99372.69;4987426;28;45627;-73
2021/12/08 02:28:47;;;;;;;;;1.67;0.00;;;;;8.31;65.89;99398.13;4972774;28;45699;-74
2021/12/08 02:31:16;;;;;;;;;1.00;0.00;;;;;8.31;66.38;99399.84;4997292;28;47511;-73
2021/12/08 02:49:56;;;;;;;;;5.00;0.00;;;;;8.19;66.18;99405.13;4991105;28;46267;-73
2021/12/08 02:52:21;;;;;;;;;0.00;0.00;;;;;8.02;66.32;99378.88;4996556;28;45653;-73
2021/12/08 02:54:48;;;;;;;;;1.00;0.00;;;;;8.07;66.30;99393.78;4997247;28;45331;-73
2021/12/08 02:57:15;;;;;;;;;5.00;0.00;;;;;8.13;66.52;99406.03;4997127;28;45300;-73
2021/12/08 02:59:41;;;;;;;;;2.00;0.00;;;;;7.97;66.25;99383.28;4997255;28;45489;-74
2021/12/08 03:02:06;;;;;;;;;0.00;0.00;;;;;8.09;66.09;99381.50;4997384;28;46288;-73
2021/12/08 03:04:32;;;;;;;;;4.75;4.75;;;;;8.08;66.60;99392.88;4997685;28;45462;-75
2021/12/08 03:06:57;;;;;;;;;13.50;8.00;;;;;8.05;66.52;99376.28;4986342;28;53954;-74
2021/12/08 03:09:22;;;;;;;;;16.25;12.00;;;;;8.05;66.16;99387.66;4975402;28;57732;-73
2021/12/08 03:11:49;;;;;;;;;19.25;13.25;;;;;8.04;65.78;99377.13;4993486;28;46321;-74
2021/12/08 03:14:14;;;;;;;;;31.75;19.00;;;;;7.77;66.38;99329.00;4993297;28;45230;-73
2021/12/08 03:16:42;;;;;;;;;32.00;20.50;;;;;8.04;66.07;99375.41;4984701;28;45358;-74
2021/12/08 03:19:08;;;;;;;;;16.00;13.75;;;;;8.02;65.80;99378.88;4987268;28;45278;-73
2021/12/08 03:21:34;;;;;;;;;12.25;10.25;;;;;7.84;66.08;99343.91;4994543;28;47296;-73
2021/12/08 03:26:48;;;;;;;;;7.25;6.00;;;;;7.80;65.44;99344.78;4991269;28;46246;-73
2021/12/08 03:32:12;;;;;;;;;3.67;1.00;;;;;7.75;65.87;99341.28;4996406;28;45861;-73
2021/12/08 03:34:41;;;;;;;;;4.00;0.67;;;;;7.90;66.12;99350.88;4996839;28;45312;-72
2021/12/08 03:37:06;;;;;;;;;0.00;0.00;;;;;7.87;65.90;99349.13;4996924;28;45421;-73
2021/12/08 03:39:32;;;;;;;;;0.67;0.00;;;;;7.71;66.08;99323.75;4996520;28;45313;-73
2021/12/08 03:41:58;;;;;;;;;0.00;0.00;;;;;7.82;65.82;99331.63;4995272;28;46757;-73
2021/12/08 03:44:23;;;;;;;;;0.00;0.00;;;;;7.87;66.07;99343.00;4996588;28;45212;-73
2021/12/08 03:46:50;;;;;;;;;1.00;0.00;;;;;7.86;65.88;99344.75;4997078;28;45341;-73
2021/12/08 03:49:16;;;;;;;;;0.00;0.00;;;;;7.75;65.97;99336.00;4997056;28;45376;-73
2021/12/08 03:51:42;;;;;;;;;0.00;0.00;;;;;7.85;65.60;99357.91;4996311;28;46640;-73
2021/12/08 03:54:08;;;;;;;;;0.00;0.00;;;;;7.73;65.75;99331.66;4995663;28;45266;-73
2021/12/08 03:56:34;;;;;;;;;1.00;0.00;;;;;7.90;66.05;99352.66;4996970;28;45266;-73
2021/12/08 03:59:00;;;;;;;;;0.00;0.00;;;;;7.90;66.14;99360.53;4978353;28;45451;-73
2021/12/08 04:01:25;;;;;;;;;3.00;0.00;;;;;7.90;66.09;99364.03;4996517;28;45274;-73
2021/12/08 04:03:51;;;;;;;;;0.00;0.00;;;;;7.85;66.28;99366.66;4994229;28;62901;-73
2021/12/08 04:06:31;;;;;;;;;2.00;0.00;;;;;7.77;66.13;99333.38;4997052;28;45393;-73
2021/12/08 04:08:57;;;;;;;;;0.00;0.00;;;;;7.90;66.03;99371.03;4988080;28;45458;-74
2021/12/08 04:11:23;;;;;;;;;1.00;0.00;;;;;7.88;65.87;99356.16;4991627;28;46637;-73
2021/12/08 04:13:54;;;;;;;;;1.00;0.00;;;;;7.88;65.66;99344.75;4991102;28;45405;-73
2021/12/08 04:16:24;;;;;;;;;0.00;0.00;;;;;7.84;65.76;99348.28;4973590;28;45448;-74
2021/12/08 04:18:50;;;;;;;;;0.00;0.00;;;;;7.86;66.12;99347.38;4994102;28;45495;-74
2021/12/08 04:21:16;;;;;;;;;0.00;0.00;;;;;7.84;65.95;99343.91;4985629;28;63886;-73
2021/12/08 04:23:42;;;;;;;;;1.00;0.00;;;;;7.86;66.09;99363.16;4986570;28;45503;-73
2021/12/08 04:26:12;;;;;;;;;1.50;0.00;;;;;7.85;65.92;99345.63;4988339;28;45440;-73
2021/12/08 04:28:37;;;;;;;;;1.00;0.00;;;;;7.83;66.26;99351.78;4989413;28;45348;-73
2021/12/08 04:31:11;;;;;;;;;0.00;0.00;;;;;7.86;66.19;99351.75;4984316;28;45492;-73
2021/12/08 04:33:36;;;;;;;;;2.00;0.00;;;;;7.80;66.12;99351.78;4988242;28;45390;-73
2021/12/08 04:36:04;;;;;;;;;2.00;0.00;;;;;7.83;66.07;99357.03;4996291;28;45441;-73
2021/12/08 04:38:35;;;;;;;;;0.33;0.00;;;;;7.83;65.98;99357.91;4983257;28;45647;-73
2021/12/08 04:41:06;;;;;;;;;0.00;0.00;;;;;7.84;66.07;99371.94;5000393;28;46936;-73
2021/12/08 04:43:42;;;;;;;;;1.00;0.00;;;;;7.84;66.18;99366.66;4998446;28;45163;-73
2021/12/08 05:02:29;;;;;;;;;2.00;0.00;;;;;7.77;66.26;99380.66;4984531;28;45393;-74
2021/12/08 05:05:13;;;;;;;;;0.33;0.33;;;;;7.81;66.21;99380.66;4984666;28;45499;-73
2021/12/08 05:08:01;;;;;;;;;1.67;0.00;;;;;7.79;66.27;99382.44;4998500;28;45271;-73
2021/12/08 05:10:34;;;;;;;;;0.33;0.00;;;;;7.79;66.29;99378.94;4975398;28;45488;-74
2021/12/08 05:13:01;;;;;;;;;1.00;1.00;;;;;7.63;66.36;99366.69;4997221;28;45452;-73
2021/12/08 05:15:32;;;;;;;;;0.00;0.00;;;;;7.78;66.22;99395.59;4991011;28;45335;-73
2021/12/08 05:18:05;;;;;;;;;5.67;0.00;;;;;7.77;66.24;99391.19;4996339;28;45338;-73
2021/12/08 05:21:11;;;;;;;;;1.00;0.00;;;;;7.76;66.33;99392.94;4980952;28;45581;-73
2021/12/08 05:23:52;;;;;;;;;0.00;0.00;;;;;7.76;66.48;99403.44;4998580;28;45834;-74
2021/12/08 05:26:24;;;;;;;;;1.33;0.00;;;;;7.76;66.42;99402.56;4981502;28;45492;-74
2021/12/08 05:28:49;;;;;;;;;1.00;1.00;;;;;7.60;66.34;99380.69;4987124;28;45415;-73
2021/12/08 05:31:21;;;;;;;;;0.00;0.00;;;;;7.74;66.32;99405.22;5004452;28;45441;-73
2021/12/08 05:33:46;;;;;;;;;1.00;0.00;;;;;7.46;66.45;99361.47;5012728;28;45819;-74
2021/12/08 05:36:12;;;;;;;;;0.67;0.67;;;;;7.74;66.43;99412.22;5008116;28;45540;-73
2021/12/08 05:38:37;;;;;;;;;1.00;0.00;;;;;7.70;66.41;99408.72;5007124;28;45537;-73
2021/12/08 05:41:13;;;;;;;;;0.50;0.00;;;;;7.72;66.67;99413.94;5015897;28;45480;-73
2021/12/08 05:43:38;;;;;;;;;2.00;0.00;;;;;7.53;66.34;99386.84;5009653;28;46623;-71
2021/12/08 05:46:03;;;;;;;;;3.00;0.00;;;;;7.41;66.52;99374.56;5008507;28;63131;-73
2021/12/08 05:48:31;;;;;;;;;0.00;0.00;;;;;7.52;66.58;99393.84;4993791;28;55124;-70
2021/12/08 05:51:21;;;;;;;;;0.67;0.67;;;;;7.70;66.81;99439.38;4992576;28;45542;-72
2021/12/08 05:53:48;;;;;;;;;2.00;0.67;;;;;7.64;66.63;99429.72;5007286;28;45598;-72
2021/12/08 05:56:14;;;;;;;;;0.00;0.00;;;;;7.50;66.68;99405.19;5010969;28;45464;-72
2021/12/08 05:58:39;;;;;;;;;0.67;0.67;;;;;7.64;66.57;99423.59;5008277;28;45518;-71
2021/12/08 06:01:11;;;;;;;;;2.00;0.00;;;;;7.63;66.74;99422.72;5010752;28;45424;-71
2021/12/08 06:03:36;;;;;;;;;2.33;0.00;;;;;7.61;66.71;99416.56;5005534;28;46239;-72
2021/12/08 06:06:02;;;;;;;;;2.00;0.00;;;;;7.60;66.53;99420.97;5007287;28;45341;-72
2021/12/08 06:08:28;;;;;;;;;5.33;0.00;;;;;7.59;66.48;99418.34;5010316;28;45687;-73
2021/12/08 06:10:54;;;;;;;;;0.00;0.00;;;;;7.55;66.52;99419.22;5011618;28;45470;-73
2021/12/08 06:13:19;;;;;;;;;0.00;0.00;;;;;7.55;67.00;99406.94;5005838;28;45490;-73
2021/12/08 06:15:45;;;;;;;;;3.00;0.33;;;;;7.46;66.50;99401.72;5008181;28;45568;-73
2021/12/08 06:18:11;;;;;;;;;0.00;0.00;;;;;7.32;66.71;99396.44;5002095;28;45471;-73
2021/12/08 06:20:37;;;;;;;;;0.00;0.00;;;;;7.50;66.58;99415.72;5007483;28;45448;-71
2021/12/08 06:23:03;;;;;;;;;2.33;0.00;;;;;7.46;66.53;99414.84;5000969;28;45791;-72
2021/12/08 06:25:28;;;;;;;;;0.67;0.67;;;;;7.48;66.76;99422.72;5001365;28;45507;-71
2021/12/08 06:27:54;;;;;;;;;0.00;0.00;;;;;7.47;66.62;99423.59;5004560;28;58974;-72
2021/12/08 06:30:22;;;;;;;;;3.00;0.00;;;;;7.41;66.50;99426.22;4998731;28;45460;-72
2021/12/08 06:32:47;;;;;;;;;0.00;0.00;;;;;7.30;66.59;99431.47;4996515;28;45431;-71
2021/12/08 06:35:16;;;;;;;;;3.00;0.00;;;;;7.15;67.19;99434.94;4985422;28;45533;-72
2021/12/08 06:37:42;;;;;;;;;6.33;0.00;;;;;7.06;67.22;99442.78;5002477;28;45419;-73
2021/12/08 06:40:42;;;;;;;;;2.00;0.00;;;;;7.02;67.41;99439.25;4996092;28;45321;-72
2021/12/08 06:43:09;;;;;;;;;0.00;0.00;;;;;6.80;67.88;99424.31;4994959;28;46307;-71
2021/12/08 06:45:37;;;;;;;;;2.50;0.25;;;;;6.81;68.44;99447.06;4988348;28;46782;-73
2021/12/08 06:48:06;;;;;;;;;2.00;0.00;;;;;6.58;68.30;99418.13;4992485;28;45535;-72
2021/12/08 06:50:35;;;;;;;;;3.00;1.25;;;;;6.66;68.54;99428.63;4996272;28;45583;-72
2021/12/08 06:53:01;;;;;;;;;0.00;0.00;;;;;6.70;68.29;99438.25;5000726;28;45564;-72
2021/12/08 06:55:29;;;;;;;;;5.00;1.00;;;;;6.74;68.53;99443.53;5007056;28;45452;-72
2021/12/08 06:58:06;;;;;;;;;0.67;0.00;;;;;6.78;68.33;99439.19;5004634;28;45464;-72
2021/12/08 07:00:48;;;;;;;;;0.00;0.00;;;;;6.84;68.33;99431.34;4978872;28;45264;-72
2021/12/08 07:03:31;;;;;;;;;0.67;0.00;;;;;6.74;68.32;99398.06;5000559;28;47240;-72
2021/12/08 07:06:09;;;;;;;;;3.00;0.00;;;;;6.94;68.02;99441.00;4991805;28;45375;-72
2021/12/08 07:08:41;;;;;;;;;2.00;0.50;;;;;6.97;68.05;99432.22;4996712;28;45483;-72
2021/12/08 07:11:07;;;;;;;;;1.00;0.00;;;;;7.00;67.98;99445.38;4994298;28;45443;-72
2021/12/08 07:13:33;;;;;;;;;1.50;0.00;;;;;7.00;67.85;99441.00;4996511;28;47735;-72
2021/12/08 07:16:08;;;;;;;;;2.00;0.25;;;;;7.04;67.94;99441.91;4996852;28;45425;-72
2021/12/08 07:18:40;;;;;;;;;1.00;1.00;;;;;7.05;68.11;99444.53;4994063;28;45503;-70
2021/12/08 07:21:08;;;;;;;;;0.00;0.00;;;;;6.93;67.80;99435.75;4999005;28;45612;-74
2021/12/08 07:23:46;;;;;;;;;0.00;0.00;;;;;6.77;67.78;99401.59;4996355;28;46405;-75
2021/12/08 07:26:17;;;;;;;;;5.33;0.00;;;;;7.07;67.84;99450.63;4986983;28;45508;-74
2021/12/08 07:28:43;;;;;;;;;0.00;0.00;;;;;7.07;67.67;99455.88;4995913;28;45298;-73
2021/12/08 07:31:15;;;;;;;;;0.00;0.00;;;;;6.97;68.00;99435.72;4986970;28;45527;-76
2021/12/08 07:33:42;;;;;;;;;1.25;1.25;;;;;6.96;68.01;99428.75;4995694;28;46715;-72
2021/12/08 07:36:10;;;;;;;;;1.00;0.00;;;;;7.13;67.73;99462.03;4994362;28;45522;-71
2021/12/08 07:38:36;;;;;;;;;1.75;0.25;;;;;7.14;67.79;99467.31;4994726;28;45469;-73
2021/12/08 07:41:06;;;;;;;;;0.00;0.00;;;;;7.12;67.63;99473.41;5000032;28;45614;-72
2021/12/08 07:43:31;;;;;;;;;0.33;0.00;;;;;7.09;67.82;99476.91;4995212;28;45583;-71
2021/12/08 07:46:03;;;;;;;;;2.00;0.00;;;;;7.08;67.58;99490.88;4994539;28;45507;-73
2021/12/08 07:48:34;;;;;;;;;6.33;0.00;;;;;7.06;67.81;99487.38;4996089;28;45452;-74
2021/12/08 07:51:28;;;;;;;;;2.00;0.00;;;;;7.07;67.78;99492.63;4995318;28;46821;-74
2021/12/08 07:53:54;;;;;;;;;0.75;0.75;;;;;6.82;67.92;99457.56;4974633;28;46114;-73
2021/12/08 07:56:20;;;;;;;;;1.00;0.67;;;;;6.97;67.80;99479.47;4970453;28;64032;-75
2021/12/08 07:58:50;;;;;;;;;0.50;0.00;;;;;7.00;67.97;99493.50;4994001;28;45211;-75
2021/12/08 08:01:19;;;;;;;;;7.00;2.25;;;;;7.12;67.86;99508.41;4982664;28;45438;-74
2021/12/08 08:03:44;;;;;;;;;2.00;0.25;;;;;7.17;67.90;99506.66;4994866;28;46345;-73
2021/12/08 08:06:15;;;;;;;;;4.33;0.67;;;;;7.16;67.59;99502.28;4990873;28;45472;-74
2021/12/08 08:08:40;;;;;;;;;1.00;1.00;;;;;7.03;67.96;99469.00;4976126;28;45407;-74
2021/12/08 08:11:09;;;;;;;;;2.00;1.00;;;;;7.19;67.81;99497.06;4993093;28;47006;-74
2021/12/08 08:13:35;;;;;;;;;0.75;0.75;;;;;7.24;67.96;99494.44;4992361;28;46765;-73
2021/12/08 08:16:06;;;;;;;;;0.00;0.00;;;;;7.24;67.79;99505.81;4989099;28;45415;-75
2021/12/08 08:18:37;;;;;;;;;2.75;1.00;;;;;6.87;67.55;99426.09;4981926;28;45515;-75
2021/12/08 08:21:13;;;;;;;;;1.25;0.00;;;;;7.25;67.75;99499.72;4994405;28;45518;-75
2021/12/08 08:23:38;;;;;;;;;1.00;1.00;;;;;7.13;67.77;99470.78;4995097;28;46713;-75
2021/12/08 08:26:05;;;;;;;;;3.50;1.50;;;;;7.21;67.57;99489.19;4992931;28;66522;-74
2021/12/08 08:28:31;;;;;;;;;1.50;0.00;;;;;7.14;67.99;99488.31;4995444;28;45432;-71
2021/12/08 08:31:09;;;;;;;;;0.00;0.00;;;;;7.16;67.75;99498.78;4977781;28;45524;-71
2021/12/08 08:33:35;;;;;;;;;2.00;0.75;;;;;7.17;67.89;99519.78;4995251;28;47749;-71
2021/12/08 08:36:06;;;;;;;;;0.75;0.50;;;;;6.96;68.11;99493.47;4994464;28;45441;-74
2021/12/08 08:38:36;;;;;;;;;1.75;0.50;;;;;6.94;67.88;99490.84;4996039;28;45533;-74
2021/12/08 08:41:15;;;;;;;;;0.67;0.00;;;;;7.04;67.97;99521.50;4976822;28;45572;-72
2021/12/08 08:43:41;;;;;;;;;7.00;1.00;;;;;7.00;68.26;99527.59;5000141;28;47047;-73
2021/12/08 08:46:12;;;;;;;;;5.75;1.25;;;;;6.97;68.08;99535.44;4976849;28;45480;-73
2021/12/08 08:48:46;;;;;;;;;0.00;0.00;;;;;6.83;68.40;99514.41;5135825;22;47029;-74
2021/12/08 08:51:39;;;;;;;;;1.00;1.00;;;;;6.91;68.49;99537.19;5014727;28;45578;-74
2021/12/08 08:54:10;;;;;;;;;0.00;0.00;;;;;6.64;68.59;99486.31;5004345;28;46107;-74
2021/12/08 08:56:39;;;;;;;;;5.25;0.75;;;;;6.95;68.43;99534.56;5014015;28;45491;-74
2021/12/08 08:59:08;;;;;;;;;3.00;0.00;;;;;6.89;68.61;99518.81;5014961;28;45523;-74
2021/12/08 09:01:36;;;;;;;;;3.00;0.75;;;;;6.95;68.26;99505.72;4984698;28;45386;-74
2021/12/08 09:04:06;;;;;;;;;3.50;1.00;;;;;7.12;68.47;99523.28;5013289;28;46121;-74
2021/12/08 09:06:37;;;;;;;;;2.00;0.00;;;;;7.04;68.22;99504.88;5013227;28;45902;-75
2021/12/08 09:09:05;;;;;;;;;1.00;1.00;;;;;7.24;68.29;99549.56;5011668;28;46522;-74
2021/12/08 09:11:35;;;;;;;;;1.00;1.00;;;;;7.15;68.22;99533.78;5013970;28;46896;-75
2021/12/08 09:14:15;;;;;;;;;2.00;0.25;;;;;7.32;67.92;99555.72;5004318;28;45683;-74
2021/12/08 09:16:53;;;;;;;;;1.67;1.00;;;;;7.20;67.63;99532.94;5010609;28;45474;-74
2021/12/08 09:19:27;;;;;;;;;0.00;0.00;;;;;7.37;67.86;99551.38;5014823;28;45801;-74
2021/12/08 09:22:10;;;;;;;;;5.00;1.00;;;;;7.38;67.74;99563.63;5011285;28;45534;-74
2021/12/08 09:24:47;;;;;;;;;1.00;1.00;;;;;7.42;67.77;99546.13;5017867;28;47425;-74
2021/12/08 09:27:15;;;;;;;;;1.00;1.00;;;;;7.45;67.68;99546.13;5021385;28;45423;-74
2021/12/08 09:29:46;;;;;;;;;6.00;1.00;;;;;7.31;67.43;99531.22;5017431;28;45430;-74
2021/12/08 09:32:20;;;;;;;;;1.00;0.00;;;;;7.38;67.45;99532.13;5018022;28;45474;-74
2021/12/08 09:34:54;;;;;;;;;0.50;0.25;;;;;7.55;67.55;99561.03;4999977;28;46509;-75
2021/12/08 09:37:20;;;;;;;;;1.00;1.00;;;;;7.43;67.49;99543.50;5017319;28;45344;-73
2021/12/08 09:39:52;;;;;;;;;1.67;1.00;;;;;7.52;67.57;99545.28;5019139;28;45468;-74
2021/12/08 09:42:21;;;;;;;;;2.00;0.33;;;;;7.79;67.67;99570.75;5018094;28;45514;-74
2021/12/08 09:44:49;;;;;;;;;2.00;1.00;;;;;7.86;67.02;99577.75;5017746;28;46450;-75
2021/12/08 09:47:14;;;;;;;;;0.67;0.67;;;;;7.85;66.99;99563.75;5016717;28;45312;-73
2021/12/08 09:49:39;;;;;;;;;0.00;0.00;;;;;7.84;66.81;99566.38;5019197;28;45561;-74
2021/12/08 09:52:07;;;;;;;;;5.00;1.00;;;;;7.84;66.87;99575.13;5014350;28;45284;-73
2021/12/08 09:54:33;;;;;;;;;0.67;0.00;;;;;7.85;66.75;99566.38;5016747;28;46672;-73
2021/12/08 09:56:59;;;;;;;;;2.00;0.67;;;;;7.86;66.84;99577.75;5011142;28;45442;-73
2021/12/08 09:59:25;;;;;;;;;1.00;0.33;;;;;7.86;66.84;99568.13;4997455;28;45313;-74
2021/12/08 10:01:51;;;;;;;;;3.00;0.00;;;;;7.28;66.69;99457.69;5014908;28;45988;-73
2021/12/08 10:04:17;;;;;;;;;0.00;0.00;;;;;7.90;66.64;99549.75;5014449;28;46933;-74
2021/12/08 10:06:49;;;;;;;;;3.67;0.33;;;;;7.93;66.44;99552.34;4980852;28;45441;-73
2021/12/08 10:09:14;;;;;;;;;0.00;0.00;;;;;7.82;66.81;99524.31;5012844;28;45521;-73
2021/12/08 10:11:39;;;;;;;;;0.67;0.00;;;;;7.98;66.59;99553.25;5013876;28;53746;-73
2021/12/08 10:14:05;;;;;;;;;2.67;0.67;;;;;7.98;66.46;99551.47;4980469;28;45539;-73
2021/12/08 10:16:32;;;;;;;;;1.00;1.00;;;;;7.97;66.51;99539.22;5013513;28;45430;-73
2021/12/08 10:18:57;;;;;;;;;3.00;1.00;;;;;8.04;66.18;99555.88;4999218;28;45406;-74
2021/12/08 10:21:37;;;;;;;;;1.00;0.00;;;;;7.87;65.81;99526.94;4998727;28;54861;-74
2021/12/08 10:24:15;;;;;;;;;6.00;1.00;;;;;8.02;65.93;99553.25;5008506;28;47195;-73
2021/12/08 10:26:41;;;;;;;;;0.33;0.33;;;;;7.98;65.96;99530.47;5017617;28;45210;-73
2021/12/08 10:29:06;;;;;;;;;1.00;1.00;;;;;8.03;66.02;99556.75;5017029;28;45961;-73
2021/12/08 10:31:33;;;;;;;;;2.00;0.00;;;;;8.03;65.89;99552.38;5017864;28;45289;-73
2021/12/08 10:39:13;;;;;;;;;0.67;0.67;;;;;8.08;65.20;99550.63;5015370;28;45408;-73
2021/12/08 10:41:48;;;;;;;;;0.00;0.00;;;;;8.08;65.05;99547.13;5015147;28;45451;-72
2021/12/08 10:44:13;;;;;;;;;1.00;0.00;;;;;8.08;65.35;99541.84;5016597;28;47358;-72
2021/12/08 10:46:39;;;;;;;;;2.00;0.00;;;;;8.11;65.12;99544.50;5015632;28;45373;-71
2021/12/08 10:49:18;;;;;;;;;3.67;1.00;;;;;8.11;65.06;99531.34;5014500;28;45858;-71
2021/12/08 10:54:30;;;;;;;;;4.00;1.00;;;;;8.00;64.74;99517.34;5016779;28;45483;-72
2021/12/08 10:56:57;;;;;;;;;1.00;1.00;;;;;8.11;65.04;99542.75;5016046;28;45558;-72
2021/12/08 10:59:26;;;;;;;;;3.00;1.00;;;;;8.12;65.17;99551.50;5011397;28;46681;-72
2021/12/08 11:01:53;;;;;;;;;0.33;0.33;;;;;7.97;65.34;99509.44;5016716;28;45321;-71
2021/12/08 11:04:19;;;;;;;;;0.00;0.00;;;;;7.68;65.18;99463.00;5015645;28;46640;-72
2021/12/08 11:06:44;;;;;;;;;5.67;1.00;;;;;8.19;65.14;99540.09;5015174;28;45494;-72
2021/12/08 11:09:19;;;;;;;;;1.00;1.00;;;;;8.17;65.24;99536.59;5014351;28;61716;-71
2021/12/08 11:11:44;;;;;;;;;1.00;1.00;;;;;8.26;65.40;99555.03;5014942;28;45526;-72
2021/12/08 11:14:10;;;;;;;;;1.00;1.00;;;;;8.31;65.20;99555.00;4995814;28;46653;-71
2021/12/08 11:16:41;;;;;;;;;1.00;1.00;;;;;8.35;65.06;99555.00;5009531;28;45383;-72
2021/12/08 11:19:13;;;;;;;;;2.00;0.67;;;;;8.24;64.25;99529.59;5019367;28;45529;-71
2021/12/08 11:21:43;;;;;;;;;1.67;0.00;;;;;8.40;64.73;99547.13;5018123;28;45466;-70
2021/12/08 11:24:31;;;;;;;;;3.33;0.33;;;;;8.43;64.46;99551.53;4999628;28;46885;-71
2021/12/08 11:26:57;;;;;;;;;0.00;0.00;;;;;8.44;64.37;99553.28;5015742;28;45577;-70
2021/12/08 11:29:24;;;;;;;;;2.00;0.00;;;;;8.46;64.54;99554.16;5016898;28;45312;-70
2021/12/08 11:32:02;;;;;;;;;0.00;0.00;;;;;8.47;64.28;99554.16;5013200;28;45423;-71
2021/12/08 11:34:29;;;;;;;;;2.00;0.00;;;;;8.50;64.00;99537.50;5004331;28;47380;-70
2021/12/08 11:36:59;;;;;;;;;2.00;0.00;;;;;8.40;64.35;99510.31;5018287;28;45462;-70
2021/12/08 11:39:36;;;;;;;;;3.00;0.67;;;;;8.57;64.12;99540.09;5015342;28;45379;-70
2021/12/08 11:42:13;;;;;;;;;1.00;0.00;;;;;8.60;64.08;99548.00;5016275;28;45580;-70
2021/12/08 11:44:41;;;;;;;;;2.00;0.00;;;;;8.63;64.25;99550.63;5008778;28;47241;-72
2021/12/08 11:47:15;;;;;;;;;2.00;0.67;;;;;8.67;64.12;99546.22;5011293;28;45231;-70
2021/12/08 11:49:43;;;;;;;;;0.33;0.33;;;;;8.70;63.74;99529.56;5009590;28;45473;-70
2021/12/08 11:52:13;;;;;;;;;2.00;1.00;;;;;8.76;64.01;99553.22;5014644;28;45151;-70
2021/12/08 11:54:50;;;;;;;;;1.00;1.00;;;;;8.80;64.10;99533.94;5012313;28;46627;-69
2021/12/08 11:57:20;;;;;;;;;2.50;2.00;;;;;8.82;63.74;99538.28;5013705;28;45500;-70
2021/12/08 11:59:49;;;;;;;;;3.00;2.00;;;;;8.87;64.09;99536.53;5010134;28;45232;-70
2021/12/08 12:02:15;;;;;;;;;2.00;1.00;;;;;8.82;63.99;99521.63;5012112;28;45495;-70
2021/12/08 12:04:41;;;;;;;;;0.00;0.00;;;;;9.00;63.26;99545.28;5014272;28;47311;-70
2021/12/08 12:07:10;;;;;;;;;0.00;0.00;;;;;9.03;63.41;99547.88;5017132;28;45202;-70
2021/12/08 12:09:35;;;;;;;;;4.33;1.00;;;;;9.05;63.29;99547.88;5016873;28;45416;-70
2021/12/08 12:12:01;;;;;;;;;0.00;0.00;;;;;9.07;63.11;99549.63;5017314;28;54391;-71
2021/12/08 12:14:28;;;;;;;;;2.33;0.00;;;;;9.10;63.36;99567.16;5002561;28;46561;-71
2021/12/08 12:16:54;;;;;;;;;2.00;0.00;;;;;9.09;63.02;99554.88;4998405;28;45514;-70
2021/12/08 12:19:19;;;;;;;;;0.33;0.33;;;;;9.06;62.49;99553.16;5007979;28;46617;-70
2021/12/08 12:22:11;;;;;;;;;0.33;0.33;;;;;9.05;62.49;99556.63;5015020;28;45578;-70
2021/12/08 12:25:14;;;;;;;;;0.67;0.00;;;;;9.06;63.04;99568.94;4992705;28;47538;-70
2021/12/08 12:28:18;;;;;;;;;5.00;0.00;;;;;9.07;63.05;99581.22;5015281;28;46497;-70
2021/12/08 12:31:08;;;;;;;;;0.00;0.00;;;;;9.11;63.15;99577.72;4997510;28;45683;-71
2021/12/08 12:33:43;;;;;;;;;0.33;0.00;;;;;9.20;62.43;99576.78;5013674;28;45638;-70
2021/12/08 12:36:21;;;;;;;;;0.00;0.00;;;;;9.28;63.08;99579.41;5013301;28;47017;-70
2021/12/08 12:38:47;;;;;;;;;3.00;0.00;;;;;9.31;62.68;99580.25;5009724;28;45337;-70
2021/12/08 12:41:30;;;;;;;;;1.00;1.00;;;;;9.31;62.54;99585.50;5014761;28;45574;-71
2021/12/08 12:44:15;;;;;;;;;1.00;1.00;;;;;9.36;62.53;99585.50;5014689;28;45486;-70
2021/12/08 12:49:32;;;;;;;;;2.00;0.00;;;;;9.14;62.19;99561.00;5005399;28;45554;-70